createdAt,value
2017-07-19T00:00:36.526Z,10.6
2017-07-19T00:01:16.662Z,12.9
2017-07-19T00:01:56.701Z,12.7
2017-07-19T00:02:36.734Z,12.4
2017-07-19T00:03:17.268Z,11.7
2017-07-19T00:03:57.615Z,14.9
2017-07-19T00:04:37.451Z,13.2
2017-07-19T00:05:17.397Z,11.6
2017-07-19T00:05:57.929Z,12.8
2017-07-19T00:06:38.384Z,9.8
2017-07-19T00:07:18.657Z,11.6
2017-07-19T00:07:58.799Z,9.7
2017-07-19T00:08:38.840Z,10.1
2017-07-19T00:09:19.674Z,8.5
2017-07-19T00:09:59.812Z,11.5
2017-07-19T00:10:40.051Z,11.6
2017-07-19T00:11:19.991Z,13.8
2017-07-19T00:12:00.428Z,12.1
2017-07-19T00:12:40.667Z,17.8
2017-07-19T00:13:20.705Z,18.9
2017-07-19T00:14:01.240Z,15.6
2017-07-19T00:14:41.586Z,12.1
2017-07-19T00:15:21.511Z,10.4
2017-07-19T00:16:01.651Z,10.0
2017-07-19T00:16:42.297Z,10.1
2017-07-19T00:17:22.825Z,11.8
2017-07-19T00:18:02.867Z,9.9
2017-07-19T00:18:43.206Z,15.6
2017-07-19T00:19:23.448Z,13.3
2017-07-19T00:20:03.395Z,13.7
2017-07-19T00:20:43.533Z,12.4
2017-07-19T00:21:23.971Z,11.9
2017-07-19T00:22:04.211Z,14.7
2017-07-19T00:22:45.949Z,11.8
2017-07-19T00:23:26.173Z,10.0
2017-07-19T00:24:06.713Z,9.2
2017-07-19T00:24:46.651Z,16.2
2017-07-19T00:25:26.984Z,14.2
2017-07-19T00:26:06.923Z,15.9
2017-07-19T00:26:47.365Z,17.2
2017-07-19T00:27:27.506Z,10.5
2017-07-19T00:28:07.245Z,12.2
2017-07-19T00:28:47.893Z,11.9
2017-07-19T00:29:27.824Z,13.5
2017-07-19T00:30:08.070Z,16.9
2017-07-19T00:30:49.009Z,14.9
2017-07-19T00:31:29.645Z,13.3
2017-07-19T00:32:10.181Z,10.5
2017-07-19T00:32:51.714Z,11.8
2017-07-19T00:33:31.953Z,9.4
2017-07-19T00:34:12.285Z,10.9
2017-07-19T00:34:52.422Z,9.7
2017-07-19T00:35:32.959Z,11.9
2017-07-19T00:36:12.997Z,15.3
2017-07-19T00:36:53.258Z,11.7
2017-07-19T00:37:33.288Z,9.5
2017-07-19T00:38:13.130Z,12.4
2017-07-19T00:38:53.262Z,12.0
2017-07-19T00:39:33.509Z,12.4
2017-07-19T00:40:13.751Z,12.6
2017-07-19T00:40:53.972Z,11.6
2017-07-19T00:41:34.212Z,13.4
2017-07-19T00:42:14.446Z,11.9
2017-07-19T00:42:55.186Z,13.3
2017-07-19T00:43:35.319Z,12.4
2017-07-19T00:44:15.560Z,10.8
2017-07-19T00:44:55.692Z,17.1
2017-07-19T00:45:35.528Z,17.7
2017-07-19T00:46:15.960Z,11.5
2017-07-19T00:46:56.713Z,11.8
2017-07-19T00:47:37.257Z,11.9
2017-07-19T00:48:17.687Z,9.3
2017-07-19T00:48:58.120Z,12.1
2017-07-19T00:49:37.857Z,12.8
2017-07-19T00:50:18.084Z,12.3
2017-07-19T00:50:58.328Z,12.4
2017-07-19T00:51:38.369Z,10.7
2017-07-19T00:52:18.806Z,11.2
2017-07-19T00:52:58.935Z,11.3
2017-07-19T00:53:38.972Z,9.4
2017-07-19T00:54:19.277Z,13.5
2017-07-19T00:55:00.119Z,14.6
2017-07-19T00:55:40.558Z,11.5
2017-07-19T00:56:20.692Z,12.0
2017-07-19T00:57:00.935Z,10.3
2017-07-19T00:57:40.963Z,9.5
2017-07-19T00:58:21.204Z,10.9
2017-07-19T00:59:01.736Z,10.9
2017-07-19T00:59:42.276Z,11.7
2017-07-19T01:00:22.624Z,10.7
2017-07-19T01:01:03.254Z,13.1
2017-07-19T01:01:43.402Z,14.0
2017-07-19T01:02:23.941Z,14.3
2017-07-19T01:03:04.375Z,14.5
2017-07-19T01:03:44.216Z,11.1
2017-07-19T01:04:24.649Z,11.4
2017-07-19T01:05:04.885Z,13.0
2017-07-19T01:05:44.919Z,10.1
2017-07-19T01:06:25.260Z,9.2
2017-07-19T01:07:05.787Z,11.2
2017-07-19T01:07:45.830Z,14.2
2017-07-19T01:08:26.163Z,14.1
2017-07-19T01:09:06.508Z,10.1
2017-07-19T01:09:46.956Z,12.5
2017-07-19T01:10:27.495Z,14.7
2017-07-19T01:11:07.726Z,11.2
2017-07-19T01:11:48.177Z,11.7
2017-07-19T01:12:28.239Z,11.5
2017-07-19T01:13:08.378Z,10.1
2017-07-19T01:13:48.914Z,9.9
2017-07-19T01:14:29.051Z,10.2
2017-07-19T01:15:09.184Z,10.6
2017-07-19T01:15:49.345Z,10.2
2017-07-19T01:16:29.056Z,12.2
2017-07-19T01:17:09.294Z,10.8
2017-07-19T01:17:49.728Z,19.3
2017-07-19T01:18:29.959Z,14.1
2017-07-19T01:19:10.300Z,10.6
2017-07-19T01:19:50.237Z,10.3
2017-07-19T01:20:30.285Z,11.3
2017-07-19T01:21:10.216Z,13.1
2017-07-19T01:21:50.954Z,13.8
2017-07-19T01:22:31.297Z,13.0
2017-07-19T01:23:11.437Z,12.5
2017-07-19T01:23:51.788Z,11.5
2017-07-19T01:24:32.128Z,11.5
2017-07-19T01:25:12.564Z,14.0
2017-07-19T01:25:52.594Z,13.0
2017-07-19T01:26:33.027Z,18.5
2017-07-19T01:27:13.555Z,13.9
2017-07-19T01:27:53.586Z,11.2
2017-07-19T01:28:33.717Z,11.8
2017-07-19T01:29:13.940Z,12.5
2017-07-19T01:29:54.270Z,10.6
2017-07-19T01:30:34.798Z,11.8
2017-07-19T01:31:14.730Z,10.6
2017-07-19T01:31:55.269Z,13.7
2017-07-19T01:32:35.892Z,15.8
2017-07-19T01:33:16.228Z,13.9
2017-07-19T01:33:56.857Z,12.4
2017-07-19T01:34:37.294Z,12.2
2017-07-19T01:35:17.628Z,11.7
2017-07-19T01:35:57.660Z,13.8
2017-07-19T01:36:37.884Z,13.6
2017-07-19T01:37:18.014Z,11.9
2017-07-19T01:37:58.343Z,11.2
2017-07-19T01:38:38.277Z,15.4
2017-07-19T01:39:18.702Z,13.2
2017-07-19T01:39:58.930Z,10.5
2017-07-19T01:40:39.060Z,14.3
2017-07-19T01:41:19.493Z,12.5
2017-07-19T01:42:00.020Z,10.4
2017-07-19T01:42:39.953Z,10.4
2017-07-19T01:43:19.883Z,12.3
2017-07-19T01:43:59.905Z,11.2
2017-07-19T01:44:40.336Z,12.6
2017-07-19T01:45:20.472Z,10.5
2017-07-19T01:46:01.002Z,12.1
2017-07-19T01:46:41.036Z,11.5
2017-07-19T01:47:21.478Z,13.8
2017-07-19T01:48:02.114Z,15.8
2017-07-19T01:48:41.940Z,13.0
2017-07-19T01:49:21.876Z,11.6
2017-07-19T01:50:02.107Z,13.2
2017-07-19T01:50:42.239Z,12.1
2017-07-19T01:51:22.674Z,14.6
2017-07-19T01:52:02.902Z,15.7
2017-07-19T01:52:43.131Z,13.7
2017-07-19T01:53:22.967Z,13.8
2017-07-19T01:54:03.401Z,14.0
2017-07-19T01:54:43.835Z,10.3
2017-07-19T01:55:23.854Z,12.6
2017-07-19T01:56:04.092Z,15.4
2017-07-19T01:56:44.130Z,17.7
2017-07-19T01:57:24.256Z,14.7
2017-07-19T01:58:04.696Z,11.0
2017-07-19T01:58:44.824Z,11.0
2017-07-19T01:59:25.251Z,11.5
2017-07-19T02:00:05.081Z,13.1
2017-07-19T02:00:45.316Z,13.4
2017-07-19T02:01:25.747Z,13.1
2017-07-19T02:02:05.777Z,12.0
2017-07-19T02:02:46.000Z,11.5
2017-07-19T02:03:26.230Z,15.8
2017-07-19T02:04:06.358Z,11.4
2017-07-19T02:04:46.784Z,8.6
2017-07-19T02:05:26.918Z,10.2
2017-07-19T02:06:06.849Z,12.0
2017-07-19T02:06:46.895Z,15.7
2017-07-19T02:07:27.322Z,13.0
2017-07-19T02:08:07.565Z,10.9
2017-07-19T02:08:47.396Z,12.4
2017-07-19T02:09:27.522Z,12.7
2017-07-19T02:10:07.755Z,11.0
2017-07-19T02:10:48.181Z,10.8
2017-07-19T02:11:28.411Z,16.2
2017-07-19T02:12:08.651Z,13.5
2017-07-19T02:12:48.475Z,12.8
2017-07-19T02:13:28.504Z,13.0
2017-07-19T02:14:08.831Z,13.1
2017-07-19T02:14:49.069Z,13.1
2017-07-19T02:15:29.003Z,11.7
2017-07-19T02:16:08.834Z,13.6
2017-07-19T02:16:48.981Z,13.9
2017-07-19T02:17:29.108Z,12.3
2017-07-19T02:18:09.132Z,11.0
2017-07-19T02:18:49.384Z,12.6
2017-07-19T02:19:29.806Z,11.5
2017-07-19T02:20:10.345Z,13.5
2017-07-19T02:20:50.471Z,13.2
2017-07-19T02:21:30.519Z,13.4
2017-07-19T02:22:10.645Z,17.8
2017-07-19T02:22:50.474Z,17.6
2017-07-19T02:23:30.700Z,12.7
2017-07-19T02:24:11.228Z,11.7
2017-07-19T02:24:51.454Z,14.5
2017-07-19T02:25:31.779Z,14.7
2017-07-19T02:26:11.650Z,14.0
2017-07-19T02:26:51.759Z,11.5
2017-07-19T02:27:31.890Z,11.3
2017-07-19T02:28:12.121Z,12.8
2017-07-19T02:28:52.368Z,14.2
2017-07-19T02:29:32.910Z,13.3
2017-07-19T02:30:13.440Z,14.7
2017-07-19T02:30:53.767Z,18.8
2017-07-19T02:31:34.092Z,16.0
2017-07-19T02:32:14.432Z,13.2
2017-07-19T02:32:54.871Z,14.6
2017-07-19T02:33:35.112Z,13.1
2017-07-19T02:34:15.235Z,12.6
2017-07-19T02:34:55.570Z,11.4
2017-07-19T02:35:36.298Z,14.1
2017-07-19T02:36:16.330Z,14.6
2017-07-19T02:36:56.661Z,10.7
2017-07-19T02:37:37.090Z,16.0
2017-07-19T02:38:17.214Z,18.8
2017-07-19T02:38:57.545Z,12.8
2017-07-19T02:39:37.477Z,13.2
2017-07-19T02:40:17.823Z,11.9
2017-07-19T02:40:57.954Z,16.2
2017-07-19T02:41:37.978Z,14.2
2017-07-19T02:42:17.912Z,13.4
2017-07-19T02:42:58.154Z,11.0
2017-07-19T02:43:41.110Z,12.2
2017-07-19T02:44:21.735Z,11.8
2017-07-19T02:45:02.464Z,11.0
2017-07-19T02:45:43.499Z,14.0
2017-07-19T02:46:23.929Z,13.9
2017-07-19T02:47:03.860Z,13.1
2017-07-19T02:47:44.385Z,13.5
2017-07-19T02:48:24.413Z,14.0
2017-07-19T02:49:04.641Z,12.4
2017-07-19T02:49:44.884Z,14.3
2017-07-19T02:50:25.118Z,14.7
2017-07-19T02:51:05.449Z,15.2
2017-07-19T02:51:46.001Z,16.2
2017-07-19T02:52:26.413Z,14.0
2017-07-19T02:53:06.260Z,11.8
2017-07-19T02:53:46.372Z,16.3
2017-07-19T02:54:26.409Z,16.9
2017-07-19T02:55:06.735Z,16.5
2017-07-19T02:55:47.276Z,14.5
2017-07-19T02:56:27.303Z,14.7
2017-07-19T02:57:07.332Z,16.1
2017-07-19T02:57:47.367Z,17.4
2017-07-19T02:58:27.404Z,10.9
2017-07-19T02:59:07.735Z,14.5
2017-07-19T02:59:48.064Z,11.2
2017-07-19T03:00:28.214Z,14.3
2017-07-19T03:01:07.932Z,20.0
2017-07-19T03:01:48.264Z,17.4
2017-07-19T03:02:28.200Z,17.2
2017-07-19T03:03:08.129Z,13.3
2017-07-19T03:03:48.462Z,18.9
2017-07-19T03:04:28.289Z,16.4
2017-07-19T03:05:08.324Z,14.6
2017-07-19T03:05:48.951Z,14.1
2017-07-19T03:06:29.181Z,13.8
2017-07-19T03:07:09.120Z,14.3
2017-07-19T03:07:49.156Z,14.4
2017-07-19T03:08:29.192Z,14.6
2017-07-19T03:09:09.322Z,13.8
2017-07-19T03:09:49.056Z,13.5
2017-07-19T03:10:29.391Z,16.9
2017-07-19T03:11:09.616Z,18.7
2017-07-19T03:11:50.143Z,22.7
2017-07-19T03:12:30.272Z,22.1
2017-07-19T03:13:10.304Z,14.3
2017-07-19T03:13:50.236Z,16.9
2017-07-19T03:14:30.572Z,20.7
2017-07-19T03:15:11.007Z,18.3
2017-07-19T03:15:51.046Z,13.9
2017-07-19T03:16:30.791Z,14.6
2017-07-19T03:17:10.817Z,13.4
2017-07-19T03:17:50.945Z,15.7
2017-07-19T03:18:31.577Z,13.2
2017-07-19T03:19:11.726Z,13.5
2017-07-19T03:19:51.950Z,13.6
2017-07-19T03:20:32.086Z,14.0
2017-07-19T03:21:11.922Z,12.1
2017-07-19T03:21:51.942Z,10.6
2017-07-19T03:22:32.476Z,12.1
2017-07-19T03:23:12.409Z,15.4
2017-07-19T03:23:52.443Z,14.0
2017-07-19T03:24:32.677Z,16.5
2017-07-19T03:25:12.913Z,15.9
2017-07-19T03:25:53.160Z,15.3
2017-07-19T03:26:33.484Z,16.5
2017-07-19T03:27:14.439Z,17.5
2017-07-19T03:27:54.678Z,11.8
2017-07-19T03:28:34.814Z,15.5
2017-07-19T03:29:15.443Z,17.8
2017-07-19T03:29:55.373Z,20.9
2017-07-19T03:30:35.304Z,17.5
2017-07-19T03:31:15.363Z,14.0
2017-07-19T03:31:55.905Z,16.8
2017-07-19T03:32:36.235Z,17.0
2017-07-19T03:33:16.987Z,22.5
2017-07-19T03:33:57.117Z,18.8
2017-07-19T03:34:37.163Z,17.2
2017-07-19T03:35:17.392Z,12.8
2017-07-19T03:35:57.441Z,14.3
2017-07-19T03:36:38.100Z,19.6
2017-07-19T03:37:18.137Z,19.0
2017-07-19T03:37:58.589Z,17.2
2017-07-19T03:38:38.523Z,16.3
2017-07-19T03:39:18.860Z,18.0
2017-07-19T03:39:58.994Z,14.0
2017-07-19T03:40:39.837Z,14.7
2017-07-19T03:41:20.176Z,14.2
2017-07-19T03:42:00.206Z,16.1
2017-07-19T03:42:40.851Z,13.2
2017-07-19T03:43:20.692Z,15.2
2017-07-19T03:44:01.016Z,16.4
2017-07-19T03:44:41.047Z,16.8
2017-07-19T03:45:21.478Z,12.7
2017-07-19T03:46:01.615Z,13.5
2017-07-19T03:46:42.047Z,12.0
2017-07-19T03:47:22.693Z,13.3
2017-07-19T03:48:02.841Z,13.5
2017-07-19T03:48:42.889Z,15.9
2017-07-19T03:49:23.322Z,13.7
2017-07-19T03:50:03.647Z,12.0
2017-07-19T03:50:44.296Z,13.4
2017-07-19T03:51:24.322Z,13.6
2017-07-19T03:52:04.767Z,15.3
2017-07-19T03:52:45.295Z,14.7
2017-07-19T03:53:25.627Z,14.8
2017-07-19T03:54:05.959Z,16.2
2017-07-19T03:54:46.492Z,12.7
2017-07-19T03:55:26.731Z,16.9
2017-07-19T03:56:07.055Z,18.6
2017-07-19T03:56:47.498Z,14.0
2017-07-19T03:57:27.735Z,15.3
2017-07-19T03:58:07.979Z,15.9
2017-07-19T03:58:47.804Z,14.1
2017-07-19T03:59:28.432Z,16.4
2017-07-19T04:00:08.766Z,14.4
2017-07-19T04:00:48.892Z,11.7
2017-07-19T04:01:29.325Z,12.8
2017-07-19T04:02:09.560Z,15.6
2017-07-19T04:02:49.927Z,16.3
2017-07-19T04:03:30.777Z,13.9
2017-07-19T04:04:11.015Z,12.6
2017-07-19T04:04:51.353Z,14.2
2017-07-19T04:05:31.677Z,14.8
2017-07-19T04:06:11.817Z,15.5
2017-07-19T04:06:52.252Z,15.4
2017-07-19T04:07:32.385Z,19.7
2017-07-19T04:08:12.719Z,19.7
2017-07-19T04:08:53.557Z,14.4
2017-07-19T04:09:33.588Z,12.2
2017-07-19T04:10:13.817Z,14.1
2017-07-19T04:10:53.957Z,14.4
2017-07-19T04:11:34.096Z,14.0
2017-07-19T04:12:14.225Z,14.2
2017-07-19T04:12:55.356Z,16.5
2017-07-19T04:13:35.592Z,12.9
2017-07-19T04:14:16.048Z,13.4
2017-07-19T04:14:56.259Z,14.7
2017-07-19T04:15:36.597Z,13.8
2017-07-19T04:16:16.534Z,14.1
2017-07-19T04:16:57.269Z,19.2
2017-07-19T04:17:37.501Z,15.9
2017-07-19T04:18:17.835Z,14.5
2017-07-19T04:18:58.375Z,16.9
2017-07-19T04:19:38.810Z,13.0
2017-07-19T04:20:18.852Z,16.7
2017-07-19T04:20:58.994Z,16.3
2017-07-19T04:21:39.428Z,11.7
2017-07-19T04:22:19.566Z,11.8
2017-07-19T04:23:01.645Z,16.7
2017-07-19T04:23:42.584Z,16.4
2017-07-19T04:24:23.211Z,20.4
2017-07-19T04:25:03.850Z,20.6
2017-07-19T04:25:44.377Z,13.9
2017-07-19T04:26:25.312Z,12.8
2017-07-19T04:27:05.653Z,15.1
2017-07-19T04:27:46.488Z,14.7
2017-07-19T04:28:26.724Z,17.1
2017-07-19T04:29:07.154Z,15.8
2017-07-19T04:29:47.898Z,18.9
2017-07-19T04:30:28.430Z,18.1
2017-07-19T04:31:08.775Z,14.6
2017-07-19T04:31:49.411Z,17.7
2017-07-19T04:32:30.345Z,13.8
2017-07-19T04:33:10.691Z,16.6
2017-07-19T04:33:50.922Z,14.9
2017-07-19T04:34:31.567Z,13.2
2017-07-19T04:35:11.806Z,12.1
2017-07-19T04:35:52.051Z,13.4
2017-07-19T04:36:32.578Z,13.5
2017-07-19T04:37:12.711Z,14.4
2017-07-19T04:37:53.058Z,12.5
2017-07-19T04:38:33.189Z,12.2
2017-07-19T04:39:13.428Z,12.1
2017-07-19T04:39:53.920Z,13.2
2017-07-19T04:40:34.672Z,13.9
2017-07-19T04:41:14.808Z,12.9
2017-07-19T04:41:54.938Z,13.2
2017-07-19T04:42:35.076Z,14.7
2017-07-19T04:43:15.310Z,13.8
2017-07-19T04:43:56.043Z,16.6
2017-07-19T04:44:36.882Z,12.6
2017-07-19T04:45:17.412Z,14.6
2017-07-19T04:45:57.859Z,14.0
2017-07-19T04:46:37.999Z,15.7
2017-07-19T04:47:18.238Z,18.5
2017-07-19T04:47:58.368Z,17.1
2017-07-19T04:48:38.722Z,14.7
2017-07-19T04:49:18.855Z,13.3
2017-07-19T04:49:59.191Z,13.1
2017-07-19T04:50:39.535Z,14.3
2017-07-19T04:51:19.870Z,14.6
2017-07-19T04:52:00.513Z,13.4
2017-07-19T04:52:41.142Z,12.4
2017-07-19T04:53:21.478Z,14.1
2017-07-19T04:54:01.715Z,13.1
2017-07-19T04:54:41.951Z,13.0
2017-07-19T04:55:22.288Z,14.2
2017-07-19T04:56:02.422Z,14.8
2017-07-19T04:56:42.760Z,15.4
2017-07-19T04:57:22.993Z,12.6
2017-07-19T04:58:03.233Z,17.8
2017-07-19T04:58:43.569Z,17.6
2017-07-19T04:59:24.007Z,13.5
2017-07-19T05:00:04.547Z,13.0
2017-07-19T05:00:44.574Z,10.0
2017-07-19T05:01:24.708Z,9.6
2017-07-19T05:02:05.050Z,11.6
2017-07-19T05:02:45.783Z,9.9
2017-07-19T05:03:26.115Z,13.3
2017-07-19T05:04:06.349Z,14.1
2017-07-19T05:04:47.388Z,15.9
2017-07-19T05:05:27.518Z,10.8
2017-07-19T05:06:07.561Z,13.3
2017-07-19T05:06:48.128Z,15.5
2017-07-19T05:07:28.560Z,14.5
2017-07-19T05:08:08.995Z,11.7
2017-07-19T05:08:49.229Z,10.7
2017-07-19T05:09:29.770Z,13.7
2017-07-19T05:10:10.120Z,12.4
2017-07-19T05:10:50.360Z,14.5
2017-07-19T05:11:30.595Z,10.9
2017-07-19T05:12:10.931Z,13.8
2017-07-19T05:12:51.371Z,10.9
2017-07-19T05:13:31.510Z,9.6
2017-07-19T05:14:11.543Z,10.2
2017-07-19T05:14:51.768Z,10.8
2017-07-19T05:15:32.225Z,8.8
2017-07-19T05:16:12.457Z,9.7
2017-07-19T05:16:52.696Z,12.1
2017-07-19T05:17:33.235Z,10.9
2017-07-19T05:18:13.868Z,8.6
2017-07-19T05:18:54.302Z,9.3
2017-07-19T05:19:34.351Z,10.6
2017-07-19T05:20:14.567Z,13.4
2017-07-19T05:20:54.505Z,15.6
2017-07-19T05:21:34.943Z,16.6
2017-07-19T05:22:15.176Z,16.1
2017-07-19T05:22:55.430Z,10.6
2017-07-19T05:23:35.548Z,7.2
2017-07-19T05:24:15.517Z,8.6
2017-07-19T05:24:55.862Z,10.9
2017-07-19T05:25:36.390Z,10.8
2017-07-19T05:26:16.633Z,8.9
2017-07-19T05:26:57.067Z,10.3
2017-07-19T05:27:37.498Z,14.4
2017-07-19T05:28:18.145Z,13.3
2017-07-19T05:28:58.657Z,9.8
2017-07-19T05:29:38.898Z,8.8
2017-07-19T05:30:19.431Z,11.5
2017-07-19T05:30:59.569Z,12.8
2017-07-19T05:31:40.216Z,10.1
2017-07-19T05:32:21.044Z,10.9
2017-07-19T05:33:01.179Z,10.6
2017-07-19T05:33:41.816Z,9.5
2017-07-19T05:34:21.856Z,12.8
2017-07-19T05:35:02.416Z,13.8
2017-07-19T05:35:43.058Z,11.3
2017-07-19T05:36:23.201Z,11.5
2017-07-19T05:37:03.863Z,9.9
2017-07-19T05:37:44.493Z,9.6
2017-07-19T05:38:24.824Z,9.8
2017-07-19T05:39:05.165Z,10.9
2017-07-19T05:39:45.407Z,9.6
2017-07-19T05:40:25.646Z,9.1
2017-07-19T05:41:05.874Z,10.4
2017-07-19T05:41:46.137Z,11.6
2017-07-19T05:42:25.891Z,10.0
2017-07-19T05:43:06.317Z,9.2
2017-07-19T05:43:46.467Z,10.8
2017-07-19T05:44:26.607Z,10.0
2017-07-19T05:45:06.547Z,9.6
2017-07-19T05:45:46.988Z,9.0
2017-07-19T05:46:27.236Z,8.8
2017-07-19T05:47:07.671Z,9.3
2017-07-19T05:47:48.209Z,9.8
2017-07-19T05:48:28.452Z,13.0
2017-07-19T05:49:08.595Z,11.8
2017-07-19T05:49:49.032Z,11.9
2017-07-19T05:50:28.766Z,13.3
2017-07-19T05:51:09.109Z,9.5
2017-07-19T05:51:48.863Z,10.5
2017-07-19T05:52:29.404Z,11.9
2017-07-19T05:53:09.565Z,10.2
2017-07-19T05:53:50.099Z,9.3
2017-07-19T05:54:30.735Z,10.5
2017-07-19T05:55:11.174Z,10.1
2017-07-19T05:55:51.210Z,10.0
2017-07-19T05:56:31.751Z,10.2
2017-07-19T05:57:12.294Z,8.9
2017-07-19T05:57:52.639Z,11.4
2017-07-19T05:58:32.870Z,12.0
2017-07-19T05:59:12.914Z,11.9
2017-07-19T05:59:53.146Z,8.2
2017-07-19T06:00:33.186Z,8.0
2017-07-19T06:01:13.322Z,8.7
2017-07-19T06:01:53.699Z,11.7
2017-07-19T06:02:34.038Z,10.0
2017-07-19T06:03:14.500Z,10.0
2017-07-19T06:03:55.046Z,10.5
2017-07-19T06:04:35.488Z,7.9
2017-07-19T06:05:15.762Z,13.0
2017-07-19T06:05:56.092Z,11.9
2017-07-19T06:06:36.656Z,9.6
2017-07-19T06:07:17.395Z,9.6
2017-07-19T06:07:58.047Z,7.2
2017-07-19T06:08:38.501Z,9.4
2017-07-19T06:09:18.749Z,11.3
2017-07-19T06:09:59.337Z,9.6
2017-07-19T06:10:39.799Z,8.1
2017-07-19T06:11:19.837Z,8.9
2017-07-19T06:12:00.484Z,9.2
2017-07-19T06:12:40.312Z,9.0
2017-07-19T06:13:20.390Z,8.3
2017-07-19T06:14:00.237Z,10.0
2017-07-19T06:14:40.737Z,10.5
2017-07-19T06:15:21.295Z,8.1
2017-07-19T06:16:01.348Z,8.9
2017-07-19T06:16:41.496Z,10.7
2017-07-19T06:17:21.838Z,9.9
2017-07-19T06:18:01.991Z,13.6
2017-07-19T06:18:42.137Z,11.9
2017-07-19T06:19:22.481Z,7.7
2017-07-19T06:20:02.726Z,11.1
2017-07-19T06:20:42.872Z,13.4
2017-07-19T06:21:23.120Z,10.4
2017-07-19T06:22:03.958Z,11.0
2017-07-19T06:22:44.515Z,11.2
2017-07-19T06:23:24.556Z,7.5
2017-07-19T06:24:04.818Z,11.9
2017-07-19T06:24:45.390Z,14.3
2017-07-19T06:25:26.032Z,10.8
2017-07-19T06:26:06.771Z,10.1
2017-07-19T06:26:47.419Z,7.9
2017-07-19T06:27:28.077Z,10.9
2017-07-19T06:28:08.217Z,9.3
2017-07-19T06:28:48.573Z,8.5
2017-07-19T06:29:29.124Z,7.4
2017-07-19T06:30:09.784Z,7.4
2017-07-19T06:30:50.253Z,9.1
2017-07-19T06:31:30.804Z,12.1
2017-07-19T06:32:11.165Z,10.0
2017-07-19T06:32:51.703Z,11.1
2017-07-19T06:33:32.260Z,10.8
2017-07-19T06:34:12.829Z,7.8
2017-07-19T06:34:53.076Z,11.5
2017-07-19T06:35:33.426Z,14.3
2017-07-19T06:36:14.165Z,7.6
2017-07-19T06:36:54.622Z,8.1
2017-07-19T06:37:35.068Z,11.4
2017-07-19T06:38:15.115Z,12.3
2017-07-19T06:38:55.595Z,12.4
2017-07-19T06:39:36.447Z,10.1
2017-07-19T06:40:16.721Z,10.2
2017-07-19T06:40:57.529Z,8.7
2017-07-19T06:41:38.213Z,9.6
2017-07-19T06:42:18.468Z,9.3
2017-07-19T06:42:58.822Z,9.6
2017-07-19T06:43:39.470Z,14.8
2017-07-19T06:44:19.609Z,8.7
2017-07-19T06:45:00.170Z,12.6
2017-07-19T06:45:41.023Z,13.2
2017-07-19T06:46:21.481Z,10.6
2017-07-19T06:47:01.537Z,9.6
2017-07-19T06:47:42.068Z,10.6
2017-07-19T06:48:22.414Z,14.8
2017-07-19T06:49:03.056Z,14.5
2017-07-19T06:49:43.614Z,10.8
2017-07-19T06:50:24.356Z,9.8
2017-07-19T06:51:05.004Z,8.7
2017-07-19T06:51:45.071Z,8.6
2017-07-19T06:52:25.745Z,10.1
2017-07-19T06:53:06.325Z,13.6
2017-07-19T06:53:46.773Z,11.6
2017-07-19T06:54:26.939Z,9.7
2017-07-19T06:55:07.684Z,10.1
2017-07-19T06:55:48.246Z,8.9
2017-07-19T06:56:28.295Z,7.3
2017-07-19T06:57:09.048Z,9.3
2017-07-19T06:57:49.498Z,9.5
2017-07-19T06:58:30.252Z,10.4
2017-07-19T06:59:11.132Z,11.6
2017-07-19T06:59:51.381Z,7.2
2017-07-19T07:00:32.032Z,7.0
2017-07-19T07:01:12.480Z,11.4
2017-07-19T07:01:52.936Z,11.9
2017-07-19T07:02:33.698Z,16.4
2017-07-19T07:03:13.851Z,10.7
2017-07-19T07:03:54.210Z,8.9
2017-07-19T07:04:34.954Z,10.5
2017-07-19T07:05:15.427Z,13.3
2017-07-19T07:05:55.881Z,13.2
2017-07-19T07:06:40.578Z,12.2
2017-07-19T07:07:21.134Z,15.2
2017-07-19T07:08:01.786Z,15.4
2017-07-19T07:08:42.434Z,13.5
2017-07-19T07:09:23.084Z,14.9
2017-07-19T07:10:03.635Z,15.1
2017-07-19T07:10:43.784Z,10.9
2017-07-19T07:11:24.159Z,14.9
2017-07-19T07:12:04.702Z,10.9
2017-07-19T07:12:44.855Z,11.8
2017-07-19T07:13:25.409Z,10.7
2017-07-19T07:14:06.064Z,12.2
2017-07-19T07:14:46.419Z,9.5
2017-07-19T07:15:26.476Z,8.8
2017-07-19T07:16:06.923Z,12.0
2017-07-19T07:16:47.473Z,11.4
2017-07-19T07:17:28.233Z,11.5
2017-07-19T07:18:09.092Z,12.0
2017-07-19T07:18:49.539Z,11.6
2017-07-19T07:19:29.884Z,11.0
2017-07-19T07:20:09.933Z,11.6
2017-07-19T07:20:50.186Z,13.8
2017-07-19T07:21:30.690Z,9.3
2017-07-19T07:22:10.853Z,8.6
2017-07-19T07:22:51.203Z,9.2
2017-07-19T07:23:31.395Z,13.2
2017-07-19T07:24:11.965Z,12.4
2017-07-19T07:24:52.421Z,8.3
2017-07-19T07:25:32.970Z,10.6
2017-07-19T07:26:13.546Z,16.3
2017-07-19T07:26:54.398Z,16.1
2017-07-19T07:27:35.059Z,12.7
2017-07-19T07:28:16.131Z,13.5
2017-07-19T07:28:56.728Z,9.7
2017-07-19T07:29:37.185Z,9.4
2017-07-19T07:30:17.763Z,10.0
2017-07-19T07:30:58.343Z,9.3
2017-07-19T07:31:38.720Z,8.6
2017-07-19T07:32:19.187Z,9.5
2017-07-19T07:32:59.824Z,8.1
2017-07-19T07:33:40.100Z,9.8
2017-07-19T07:34:20.733Z,10.1
2017-07-19T07:35:00.783Z,7.3
2017-07-19T07:35:41.459Z,10.9
2017-07-19T07:36:21.540Z,10.9
2017-07-19T07:37:01.771Z,6.5
2017-07-19T07:37:42.159Z,7.0
2017-07-19T07:38:22.735Z,7.0
2017-07-19T07:39:02.987Z,8.6
2017-07-19T07:39:43.344Z,11.4
2017-07-19T07:40:23.390Z,9.0
2017-07-19T07:41:04.543Z,10.1
2017-07-19T07:41:44.689Z,8.9
2017-07-19T07:42:25.535Z,8.4
2017-07-19T07:43:06.019Z,8.4
2017-07-19T07:43:46.577Z,8.7
2017-07-19T07:44:27.031Z,14.7
2017-07-19T07:45:07.905Z,12.0
2017-07-19T07:45:48.555Z,8.6
2017-07-19T07:46:29.211Z,10.3
2017-07-19T07:47:09.353Z,10.1
2017-07-19T07:47:49.916Z,9.0
2017-07-19T07:48:29.861Z,12.3
2017-07-19T07:49:10.513Z,8.5
2017-07-19T07:49:50.579Z,12.3
2017-07-19T07:50:30.826Z,13.1
2017-07-19T07:51:10.816Z,10.8
2017-07-19T07:51:51.249Z,9.1
2017-07-19T07:52:31.795Z,8.5
2017-07-19T07:53:12.871Z,11.6
2017-07-19T07:53:53.526Z,11.2
2017-07-19T07:54:34.179Z,15.4
2017-07-19T07:55:14.932Z,18.0
2017-07-19T07:55:55.406Z,15.2
2017-07-19T07:56:35.957Z,9.1
2017-07-19T07:57:16.620Z,13.7
2017-07-19T07:57:56.859Z,14.4
2017-07-19T07:58:37.700Z,11.2
2017-07-19T07:59:17.656Z,12.7
2017-07-19T07:59:57.708Z,9.1
2017-07-19T08:00:38.188Z,11.1
2017-07-19T08:01:18.430Z,13.3
2017-07-19T08:01:58.583Z,9.1
2017-07-19T08:02:38.725Z,12.3
2017-07-19T08:03:19.482Z,10.9
2017-07-19T08:04:00.045Z,12.9
2017-07-19T08:04:40.009Z,12.3
2017-07-19T08:05:20.573Z,9.3
2017-07-19T08:06:00.923Z,13.3
2017-07-19T08:06:41.921Z,13.5
2017-07-19T08:07:22.369Z,10.2
2017-07-19T08:08:02.631Z,10.4
2017-07-19T08:08:43.392Z,12.9
2017-07-19T08:09:23.747Z,10.6
2017-07-19T08:10:04.105Z,10.6
2017-07-19T08:10:43.956Z,10.9
2017-07-19T08:11:24.606Z,10.4
2017-07-19T08:12:05.149Z,9.5
2017-07-19T08:12:45.805Z,11.0
2017-07-19T08:13:26.753Z,9.6
2017-07-19T08:14:07.403Z,10.5
2017-07-19T08:14:48.163Z,10.7
2017-07-19T08:15:28.606Z,11.9
2017-07-19T08:16:08.758Z,11.4
2017-07-19T08:16:48.827Z,9.3
2017-07-19T08:17:29.097Z,7.3
2017-07-19T08:18:09.251Z,7.4
2017-07-19T08:18:50.016Z,10.9
2017-07-19T08:19:30.360Z,10.7
2017-07-19T08:20:10.709Z,10.5
2017-07-19T08:20:51.167Z,12.4
2017-07-19T08:21:31.614Z,12.4
2017-07-19T08:22:11.864Z,9.7
2017-07-19T08:22:52.020Z,11.4
2017-07-19T08:23:32.182Z,13.0
2017-07-19T08:24:12.453Z,9.9
2017-07-19T08:24:53.095Z,7.8
2017-07-19T08:25:33.565Z,9.4
2017-07-19T08:26:13.896Z,10.5
2017-07-19T08:26:54.089Z,9.0
2017-07-19T08:27:34.257Z,8.1
2017-07-19T08:28:14.708Z,12.8
2017-07-19T08:28:55.072Z,13.3
2017-07-19T08:29:35.622Z,11.4
2017-07-19T08:30:16.071Z,8.8
2017-07-19T08:30:56.723Z,10.2
2017-07-19T08:31:37.279Z,12.3
2017-07-19T08:32:18.119Z,10.0
2017-07-19T08:32:59.592Z,9.3
2017-07-19T08:33:39.948Z,9.1
2017-07-19T08:34:20.290Z,8.4
2017-07-19T08:35:01.039Z,11.0
2017-07-19T08:35:41.676Z,8.9
2017-07-19T08:36:22.621Z,8.9
2017-07-19T08:37:02.870Z,9.8
2017-07-19T08:37:43.230Z,9.6
2017-07-19T08:38:23.970Z,12.2
2017-07-19T08:39:04.417Z,11.0
2017-07-19T08:39:44.670Z,11.4
2017-07-19T08:40:25.319Z,9.7
2017-07-19T08:41:05.780Z,8.5
2017-07-19T08:41:46.262Z,9.3
2017-07-19T08:42:26.899Z,10.3
2017-07-19T08:43:07.073Z,9.9
2017-07-19T08:43:47.425Z,8.3
2017-07-19T08:44:27.807Z,11.0
2017-07-19T08:45:07.870Z,12.5
2017-07-19T08:45:48.549Z,10.8
2017-07-19T08:46:28.808Z,13.5
2017-07-19T08:47:09.089Z,11.6
2017-07-19T08:47:49.531Z,11.0
2017-07-19T08:48:30.480Z,8.8
2017-07-19T08:49:11.232Z,10.5
2017-07-19T08:49:51.674Z,8.2
2017-07-19T08:50:32.145Z,13.2
2017-07-19T08:51:12.209Z,13.5
2017-07-19T08:51:52.269Z,13.6
2017-07-19T08:52:32.929Z,10.2
2017-07-19T08:53:13.498Z,10.6
2017-07-19T08:53:54.057Z,9.2
2017-07-19T08:54:34.708Z,9.3
2017-07-19T08:55:15.469Z,7.1
2017-07-19T08:55:55.604Z,10.8
2017-07-19T08:56:35.954Z,12.8
2017-07-19T08:57:16.206Z,13.0
2017-07-19T08:57:56.953Z,13.2
2017-07-19T08:58:37.506Z,10.2
2017-07-19T08:59:18.055Z,9.3
2017-07-19T08:59:58.501Z,8.5
2017-07-19T09:00:39.064Z,11.0